sensor_id;sensor_type;location;lat;lon;timestamp;temperature;humidity
13488;DHT22;6816;48.506;9.050;2024-03-23T00:53:52;9.00;89.30
13488;DHT22;6816;48.506;9.050;2024-03-23T00:56:52;8.90;89.20
13488;DHT22;6816;48.506;9.050;2024-03-23T00:59:53;9.00;89.30
13488;DHT22;6816;48.506;9.050;2024-03-23T01:02:54;8.90;89.30
13488;DHT22;6816;48.506;9.050;2024-03-23T01:05:54;8.80;89.20
13488;DHT22;6816;48.506;9.050;2024-03-23T01:08:55;8.80;89.30
13488;DHT22;6816;48.506;9.050;2024-03-23T01:11:55;8.90;89.50
13488;DHT22;6816;48.506;9.050;2024-03-23T01:14:56;8.80;89.60
13488;DHT22;6816;48.506;9.050;2024-03-23T01:17:56;8.70;89.60
13488;DHT22;6816;48.506;9.050;2024-03-23T01:20:57;8.80;89.60
13488;DHT22;6816;48.506;9.050;2024-03-23T01:23:58;8.70;89.50
13488;DHT22;6816;48.506;9.050;2024-03-23T01:26:58;8.70;89.50
13488;DHT22;6816;48.506;9.050;2024-03-23T01:29:59;8.60;89.60
13488;DHT22;6816;48.506;9.050;2024-03-23T01:32:59;8.60;89.80
13488;DHT22;6816;48.506;9.050;2024-03-23T01:36:00;8.60;90.00
13488;DHT22;6816;48.506;9.050;2024-03-23T01:39:01;8.40;90.00
13488;DHT22;6816;48.506;9.050;2024-03-23T01:42:02;8.50;90.10
13488;DHT22;6816;48.506;9.050;2024-03-23T01:45:07;8.40;90.10
13488;DHT22;6816;48.506;9.050;2024-03-23T01:48:08;8.40;90.30
13488;DHT22;6816;48.506;9.050;2024-03-23T01:51:11;8.50;90.30
13488;DHT22;6816;48.506;9.050;2024-03-23T01:54:11;8.40;90.40
13488;DHT22;6816;48.506;9.050;2024-03-23T01:57:12;8.50;90.40
13488;DHT22;6816;48.506;9.050;2024-03-23T02:00:14;8.40;90.40
13488;DHT22;6816;48.506;9.050;2024-03-23T02:03:26;8.40;90.50
13488;DHT22;6816;48.506;9.050;2024-03-23T02:06:27;8.40;90.90
13488;DHT22;6816;48.506;9.050;2024-03-23T02:09:28;8.60;90.70
13488;DHT22;6816;48.506;9.050;2024-03-23T02:12:28;8.50;90.70
13488;DHT22;6816;48.506;9.050;2024-03-23T02:15:29;8.50;90.70
13488;DHT22;6816;48.506;9.050;2024-03-23T02:18:30;8.50;90.70
13488;DHT22;6816;48.506;9.050;2024-03-23T02:21:30;8.70;90.80
13488;DHT22;6816;48.506;9.050;2024-03-23T02:24:32;8.60;90.80
13488;DHT22;6816;48.506;9.050;2024-03-23T02:27:34;8.50;90.80
13488;DHT22;6816;48.506;9.050;2024-03-23T02:30:36;8.60;90.80
13488;DHT22;6816;48.506;9.050;2024-03-23T02:33:37;8.70;90.80
13488;DHT22;6816;48.506;9.050;2024-03-23T02:36:38;8.60;90.90
13488;DHT22;6816;48.506;9.050;2024-03-23T02:39:39;8.60;91.00
13488;DHT22;6816;48.506;9.050;2024-03-23T02:42:39;8.60;91.00
13488;DHT22;6816;48.506;9.050;2024-03-23T02:45:40;8.60;91.10
13488;DHT22;6816;48.506;9.050;2024-03-23T02:48:40;8.60;91.10
13488;DHT22;6816;48.506;9.050;2024-03-23T02:51:41;8.60;91.10
13488;DHT22;6816;48.506;9.050;2024-03-23T02:54:42;8.70;91.40
13488;DHT22;6816;48.506;9.050;2024-03-23T02:57:45;8.70;91.10
13488;DHT22;6816;48.506;9.050;2024-03-23T03:00:45;8.80;91.10
13488;DHT22;6816;48.506;9.050;2024-03-23T03:03:46;8.70;91.00
13488;DHT22;6816;48.506;9.050;2024-03-23T03:06:47;8.70;91.00
13488;DHT22;6816;48.506;9.050;2024-03-23T03:09:48;8.70;91.10
13488;DHT22;6816;48.506;9.050;2024-03-23T03:12:48;8.80;91.10
13488;DHT22;6816;48.506;9.050;2024-03-23T03:15:49;8.80;91.20
13488;DHT22;6816;48.506;9.050;2024-03-23T03:18:49;8.70;91.20
13488;DHT22;6816;48.506;9.050;2024-03-23T03:21:50;8.80;91.30
13488;DHT22;6816;48.506;9.050;2024-03-23T03:24:51;8.70;91.30
13488;DHT22;6816;48.506;9.050;2024-03-23T03:27:51;8.80;91.30
13488;DHT22;6816;48.506;9.050;2024-03-23T03:30:52;8.70;91.30
13488;DHT22;6816;48.506;9.050;2024-03-23T03:33:52;8.70;91.30
13488;DHT22;6816;48.506;9.050;2024-03-23T03:36:53;8.80;91.20
13488;DHT22;6816;48.506;9.050;2024-03-23T03:39:53;8.70;91.10
13488;DHT22;6816;48.506;9.050;2024-03-23T03:42:54;8.70;91.10
13488;DHT22;6816;48.506;9.050;2024-03-23T03:45:58;8.70;91.10
13488;DHT22;6816;48.506;9.050;2024-03-23T03:48:59;8.70;91.10
13488;DHT22;6816;48.506;9.050;2024-03-23T03:52:00;8.60;91.10
13488;DHT22;6816;48.506;9.050;2024-03-23T03:55:02;8.60;91.10
13488;DHT22;6816;48.506;9.050;2024-03-23T03:58:03;8.60;91.20
13488;DHT22;6816;48.506;9.050;2024-03-23T04:01:04;8.50;91.20
13488;DHT22;6816;48.506;9.050;2024-03-23T04:04:05;8.50;91.20
13488;DHT22;6816;48.506;9.050;2024-03-23T04:07:06;8.60;91.30
13488;DHT22;6816;48.506;9.050;2024-03-23T04:10:07;8.50;91.40
13488;DHT22;6816;48.506;9.050;2024-03-23T04:13:08;8.50;91.40
13488;DHT22;6816;48.506;9.050;2024-03-23T04:16:08;8.50;91.50
13488;DHT22;6816;48.506;9.050;2024-03-23T04:19:09;8.60;91.60
13488;DHT22;6816;48.506;9.050;2024-03-23T04:22:10;8.50;91.60
13488;DHT22;6816;48.506;9.050;2024-03-23T04:25:11;8.50;91.60
13488;DHT22;6816;48.506;9.050;2024-03-23T04:28:11;8.50;91.60
13488;DHT22;6816;48.506;9.050;2024-03-23T04:31:12;8.50;91.70
13488;DHT22;6816;48.506;9.050;2024-03-23T04:34:13;8.50;91.80
13488;DHT22;6816;48.506;9.050;2024-03-23T04:37:14;8.50;91.80
13488;DHT22;6816;48.506;9.050;2024-03-23T04:40:14;8.50;91.90
13488;DHT22;6816;48.506;9.050;2024-03-23T04:43:15;8.70;92.00
13488;DHT22;6816;48.506;9.050;2024-03-23T04:46:15;8.60;92.10
13488;DHT22;6816;48.506;9.050;2024-03-23T04:49:16;8.60;92.10
13488;DHT22;6816;48.506;9.050;2024-03-23T04:52:17;8.70;92.20
13488;DHT22;6816;48.506;9.050;2024-03-23T04:55:18;8.70;92.60
13488;DHT22;6816;48.506;9.050;2024-03-23T04:58:18;8.70;92.30
13488;DHT22;6816;48.506;9.050;2024-03-23T05:01:19;8.80;92.70
13488;DHT22;6816;48.506;9.050;2024-03-23T05:04:19;8.80;92.40
13488;DHT22;6816;48.506;9.050;2024-03-23T05:07:20;8.90;92.50
13488;DHT22;6816;48.506;9.050;2024-03-23T05:10:21;9.00;92.60
13488;DHT22;6816;48.506;9.050;2024-03-23T05:13:21;9.00;92.70
13488;DHT22;6816;48.506;9.050;2024-03-23T05:16:22;9.20;92.80
13488;DHT22;6816;48.506;9.050;2024-03-23T05:19:23;9.20;92.90
13488;DHT22;6816;48.506;9.050;2024-03-23T05:22:23;9.40;93.70
13488;DHT22;6816;48.506;9.050;2024-03-23T05:25:24;9.60;94.50
13488;DHT22;6816;48.506;9.050;2024-03-23T05:28:24;9.90;95.00
13488;DHT22;6816;48.506;9.050;2024-03-23T05:31:30;10.40;95.30
13488;DHT22;6816;48.506;9.050;2024-03-23T05:34:31;10.70;95.40
13488;DHT22;6816;48.506;9.050;2024-03-23T05:37:32;10.90;95.40
13488;DHT22;6816;48.506;9.050;2024-03-23T05:40:34;11.20;95.40
13488;DHT22;6816;48.506;9.050;2024-03-23T05:43:37;11.40;95.40
13488;DHT22;6816;48.506;9.050;2024-03-23T05:46:38;11.50;95.50
13488;DHT22;6816;48.506;9.050;2024-03-23T05:49:39;11.50;95.60
13488;DHT22;6816;48.506;9.050;2024-03-23T05:52:39;11.60;95.80
13488;DHT22;6816;48.506;9.050;2024-03-23T05:55:40;11.70;95.90
13488;DHT22;6816;48.506;9.050;2024-03-23T05:58:41;11.70;96.10
13488;DHT22;6816;48.506;9.050;2024-03-23T06:01:41;11.70;96.20
13488;DHT22;6816;48.506;9.050;2024-03-23T06:04:42;11.70;96.30
13488;DHT22;6816;48.506;9.050;2024-03-23T06:07:42;11.70;96.40
13488;DHT22;6816;48.506;9.050;2024-03-23T06:10:43;11.70;96.50
13488;DHT22;6816;48.506;9.050;2024-03-23T06:13:43;11.70;96.60
13488;DHT22;6816;48.506;9.050;2024-03-23T06:16:44;11.70;96.70
13488;DHT22;6816;48.506;9.050;2024-03-23T06:19:45;11.70;96.90
13488;DHT22;6816;48.506;9.050;2024-03-23T06:22:46;11.70;97.00
13488;DHT22;6816;48.506;9.050;2024-03-23T06:25:47;11.70;97.10
13488;DHT22;6816;48.506;9.050;2024-03-23T06:28:47;11.70;97.20
13488;DHT22;6816;48.506;9.050;2024-03-23T06:31:54;11.60;97.20
13488;DHT22;6816;48.506;9.050;2024-03-23T06:34:55;11.60;96.70
13488;DHT22;6816;48.506;9.050;2024-03-23T06:37:56;11.60;96.90
13488;DHT22;6816;48.506;9.050;2024-03-23T06:40:56;11.50;97.00
13488;DHT22;6816;48.506;9.050;2024-03-23T06:43:57;11.50;97.10
13488;DHT22;6816;48.506;9.050;2024-03-23T06:46:58;11.50;97.20
13488;DHT22;6816;48.506;9.050;2024-03-23T06:50:02;11.50;97.20
13488;DHT22;6816;48.506;9.050;2024-03-23T06:53:03;11.40;96.80
13488;DHT22;6816;48.506;9.050;2024-03-23T06:56:06;11.40;97.00
13488;DHT22;6816;48.506;9.050;2024-03-23T06:59:07;11.30;97.30
13488;DHT22;6816;48.506;9.050;2024-03-23T07:02:08;11.30;96.90
13488;DHT22;6816;48.506;9.050;2024-03-23T07:05:09;11.30;96.90
13488;DHT22;6816;48.506;9.050;2024-03-23T07:08:09;11.20;97.00
13488;DHT22;6816;48.506;9.050;2024-03-23T07:11:10;11.20;97.20
13488;DHT22;6816;48.506;9.050;2024-03-23T07:14:10;11.20;97.40
13488;DHT22;6816;48.506;9.050;2024-03-23T07:17:12;11.20;97.40
13488;DHT22;6816;48.506;9.050;2024-03-23T07:20:13;11.20;97.40
13488;DHT22;6816;48.506;9.050;2024-03-23T07:23:14;11.20;97.50
13488;DHT22;6816;48.506;9.050;2024-03-23T07:26:14;11.20;97.50
13488;DHT22;6816;48.506;9.050;2024-03-23T07:29:15;11.20;97.70
13488;DHT22;6816;48.506;9.050;2024-03-23T07:32:16;11.20;98.00
13488;DHT22;6816;48.506;9.050;2024-03-23T07:35:16;11.20;98.30
13488;DHT22;6816;48.506;9.050;2024-03-23T07:38:17;11.30;98.50
13488;DHT22;6816;48.506;9.050;2024-03-23T07:41:21;11.40;98.60
13488;DHT22;6816;48.506;9.050;2024-03-23T07:44:21;11.40;98.40
13488;DHT22;6816;48.506;9.050;2024-03-23T07:47:22;11.40;98.80
13488;DHT22;6816;48.506;9.050;2024-03-23T07:50:23;11.50;98.90
13488;DHT22;6816;48.506;9.050;2024-03-23T07:53:23;11.60;99.00
13488;DHT22;6816;48.506;9.050;2024-03-23T07:56:24;11.70;99.10
13488;DHT22;6816;48.506;9.050;2024-03-23T07:59:24;11.70;99.50
13488;DHT22;6816;48.506;9.050;2024-03-23T08:02:26;11.80;99.40
13488;DHT22;6816;48.506;9.050;2024-03-23T08:05:26;11.90;99.30
13488;DHT22;6816;48.506;9.050;2024-03-23T08:08:27;11.90;99.00
13488;DHT22;6816;48.506;9.050;2024-03-23T08:11:31;11.90;98.60
13488;DHT22;6816;48.506;9.050;2024-03-23T08:14:32;12.00;98.00
13488;DHT22;6816;48.506;9.050;2024-03-23T08:17:33;11.90;98.20
13488;DHT22;6816;48.506;9.050;2024-03-23T08:20:34;11.90;98.00
13488;DHT22;6816;48.506;9.050;2024-03-23T08:23:35;11.90;97.90
13488;DHT22;6816;48.506;9.050;2024-03-23T08:26:39;11.80;98.00
13488;DHT22;6816;48.506;9.050;2024-03-23T08:29:40;11.90;98.30
13488;DHT22;6816;48.506;9.050;2024-03-23T08:32:42;11.90;98.70
13488;DHT22;6816;48.506;9.050;2024-03-23T08:35:42;11.90;98.50
13488;DHT22;6816;48.506;9.050;2024-03-23T08:38:46;12.00;98.50
13488;DHT22;6816;48.506;9.050;2024-03-23T08:41:46;12.10;97.60
13488;DHT22;6816;48.506;9.050;2024-03-23T08:44:47;12.10;98.00
13488;DHT22;6816;48.506;9.050;2024-03-23T08:47:53;12.10;97.70
13488;DHT22;6816;48.506;9.050;2024-03-23T08:51:07;12.20;96.60
13488;DHT22;6816;48.506;9.050;2024-03-23T08:54:08;12.30;95.40
13488;DHT22;6816;48.506;9.050;2024-03-23T08:57:09;12.10;96.70
13488;DHT22;6816;48.506;9.050;2024-03-23T09:00:10;12.10;96.80
13488;DHT22;6816;48.506;9.050;2024-03-23T09:03:11;12.00;96.70
13488;DHT22;6816;48.506;9.050;2024-03-23T09:06:14;12.00;96.70
13488;DHT22;6816;48.506;9.050;2024-03-23T09:09:14;12.20;96.80
13488;DHT22;6816;48.506;9.050;2024-03-23T09:12:15;12.00;96.70
13488;DHT22;6816;48.506;9.050;2024-03-23T09:15:16;12.00;96.40
13488;DHT22;6816;48.506;9.050;2024-03-23T09:18:17;12.00;96.10
13488;DHT22;6816;48.506;9.050;2024-03-23T09:21:18;12.00;96.20
13488;DHT22;6816;48.506;9.050;2024-03-23T09:24:19;11.90;96.20
13488;DHT22;6816;48.506;9.050;2024-03-23T09:27:19;11.90;96.10
13488;DHT22;6816;48.506;9.050;2024-03-23T09:30:20;11.90;96.30
13488;DHT22;6816;48.506;9.050;2024-03-23T09:33:21;12.00;96.50
13488;DHT22;6816;48.506;9.050;2024-03-23T09:36:21;12.00;96.70
13488;DHT22;6816;48.506;9.050;2024-03-23T09:39:22;12.00;97.00
13488;DHT22;6816;48.506;9.050;2024-03-23T09:42:22;12.20;97.50
13488;DHT22;6816;48.506;9.050;2024-03-23T09:45:27;12.30;98.30
13488;DHT22;6816;48.506;9.050;2024-03-23T09:48:32;12.40;98.30
13488;DHT22;6816;48.506;9.050;2024-03-23T09:51:33;12.70;98.60
13488;DHT22;6816;48.506;9.050;2024-03-23T09:54:35;12.80;98.60
13488;DHT22;6816;48.506;9.050;2024-03-23T09:57:36;13.00;99.10
13488;DHT22;6816;48.506;9.050;2024-03-23T10:00:37;13.20;99.50
13488;DHT22;6816;48.506;9.050;2024-03-23T10:03:47;13.50;99.90
13488;DHT22;6816;48.506;9.050;2024-03-23T10:06:48;13.70;97.90
13488;DHT22;6816;48.506;9.050;2024-03-23T10:09:49;13.90;99.10
13488;DHT22;6816;48.506;9.050;2024-03-23T10:12:53;14.10;98.40
13488;DHT22;6816;48.506;9.050;2024-03-23T10:15:58;14.20;97.90
13488;DHT22;6816;48.506;9.050;2024-03-23T10:18:58;14.20;96.40
13488;DHT22;6816;48.506;9.050;2024-03-23T10:21:59;14.30;97.90
13488;DHT22;6816;48.506;9.050;2024-03-23T10:25:08;14.40;97.80
13488;DHT22;6816;48.506;9.050;2024-03-23T10:28:09;14.50;95.50
13488;DHT22;6816;48.506;9.050;2024-03-23T10:31:14;14.60;96.70
13488;DHT22;6816;48.506;9.050;2024-03-23T10:34:15;14.60;95.80
13488;DHT22;6816;48.506;9.050;2024-03-23T10:37:16;14.70;95.90
13488;DHT22;6816;48.506;9.050;2024-03-23T10:40:17;14.70;96.40
13488;DHT22;6816;48.506;9.050;2024-03-23T10:43:18;14.80;96.50
13488;DHT22;6816;48.506;9.050;2024-03-23T10:46:19;14.90;95.50
13488;DHT22;6816;48.506;9.050;2024-03-23T10:49:19;14.90;94.70
13488;DHT22;6816;48.506;9.050;2024-03-23T10:52:20;14.90;94.00
13488;DHT22;6816;48.506;9.050;2024-03-23T10:55:23;14.70;93.50
13488;DHT22;6816;48.506;9.050;2024-03-23T10:58:29;14.60;92.60
13488;DHT22;6816;48.506;9.050;2024-03-23T11:01:31;14.30;90.50
13488;DHT22;6816;48.506;9.050;2024-03-23T11:04:37;13.80;90.20
13488;DHT22;6816;48.506;9.050;2024-03-23T11:07:49;13.30;89.60
13488;DHT22;6816;48.506;9.050;2024-03-23T11:10:50;12.70;90.20
13488;DHT22;6816;48.506;9.050;2024-03-23T11:13:52;12.30;91.20
13488;DHT22;6816;48.506;9.050;2024-03-23T11:17:25;11.90;91.60
13488;DHT22;6816;48.506;9.050;2024-03-23T11:20:32;11.50;91.20
13488;DHT22;6816;48.506;9.050;2024-03-23T11:23:33;11.30;92.60
13488;DHT22;6816;48.506;9.050;2024-03-23T11:26:38;11.10;93.40
13488;DHT22;6816;48.506;9.050;2024-03-23T11:29:39;11.00;93.00
13488;DHT22;6816;48.506;9.050;2024-03-23T11:32:43;10.90;93.80
13488;DHT22;6816;48.506;9.050;2024-03-23T11:35:44;10.90;94.20
13488;DHT22;6816;48.506;9.050;2024-03-23T11:38:44;10.70;94.50
13488;DHT22;6816;48.506;9.050;2024-03-23T11:41:49;10.80;94.70
13488;DHT22;6816;48.506;9.050;2024-03-23T11:44:50;10.80;94.50
13488;DHT22;6816;48.506;9.050;2024-03-23T11:48:11;10.80;94.90
13488;DHT22;6816;48.506;9.050;2024-03-23T11:51:12;10.80;93.80
13488;DHT22;6816;48.506;9.050;2024-03-23T11:54:13;10.90;95.10
13488;DHT22;6816;48.506;9.050;2024-03-23T11:57:14;10.80;95.00
13488;DHT22;6816;48.506;9.050;2024-03-23T12:00:24;10.70;94.70
13488;DHT22;6816;48.506;9.050;2024-03-23T12:03:27;10.70;93.90
13488;DHT22;6816;48.506;9.050;2024-03-23T12:06:28;10.70;94.60
13488;DHT22;6816;48.506;9.050;2024-03-23T12:09:29;10.70;94.80
13488;DHT22;6816;48.506;9.050;2024-03-23T12:12:30;10.70;95.10
13488;DHT22;6816;48.506;9.050;2024-03-23T12:15:30;10.70;95.40
13488;DHT22;6816;48.506;9.050;2024-03-23T12:18:31;10.70;95.70
13488;DHT22;6816;48.506;9.050;2024-03-23T12:21:32;10.80;95.90
13488;DHT22;6816;48.506;9.050;2024-03-23T12:24:33;10.80;95.70
13488;DHT22;6816;48.506;9.050;2024-03-23T12:27:36;10.80;95.50
13488;DHT22;6816;48.506;9.050;2024-03-23T12:30:39;10.80;95.40
13488;DHT22;6816;48.506;9.050;2024-03-23T12:33:41;10.80;95.10
13488;DHT22;6816;48.506;9.050;2024-03-23T12:36:52;10.80;95.10
13488;DHT22;6816;48.506;9.050;2024-03-23T12:39:53;10.70;95.50
13488;DHT22;6816;48.506;9.050;2024-03-23T12:42:55;10.80;96.60
13488;DHT22;6816;48.506;9.050;2024-03-23T12:45:56;10.90;97.40
13488;DHT22;6816;48.506;9.050;2024-03-23T12:48:57;11.20;98.60
13488;DHT22;6816;48.506;9.050;2024-03-23T12:51:58;11.50;99.60
13488;DHT22;6816;48.506;9.050;2024-03-23T12:55:00;11.70;99.80
13488;DHT22;6816;48.506;9.050;2024-03-23T12:58:00;12.00;99.40
13488;DHT22;6816;48.506;9.050;2024-03-23T13:01:01;12.20;98.60
13488;DHT22;6816;48.506;9.050;2024-03-23T13:04:02;12.30;98.00
13488;DHT22;6816;48.506;9.050;2024-03-23T13:07:03;12.50;98.20
13488;DHT22;6816;48.506;9.050;2024-03-23T13:10:05;12.60;98.70
13488;DHT22;6816;48.506;9.050;2024-03-23T13:13:06;12.80;99.40
13488;DHT22;6816;48.506;9.050;2024-03-23T13:16:08;13.10;99.20
13488;DHT22;6816;48.506;9.050;2024-03-23T13:19:09;13.30;99.20
13488;DHT22;6816;48.506;9.050;2024-03-23T13:22:09;13.60;99.90
13488;DHT22;6816;48.506;9.050;2024-03-23T13:25:13;13.80;98.90
13488;DHT22;6816;48.506;9.050;2024-03-23T13:28:14;14.00;97.50
13488;DHT22;6816;48.506;9.050;2024-03-23T13:31:14;14.00;96.80
13488;DHT22;6816;48.506;9.050;2024-03-23T13:34:15;14.10;96.90
13488;DHT22;6816;48.506;9.050;2024-03-23T13:37:16;14.10;96.70
13488;DHT22;6816;48.506;9.050;2024-03-23T13:40:17;14.20;96.30
13488;DHT22;6816;48.506;9.050;2024-03-23T13:43:20;14.10;95.60
13488;DHT22;6816;48.506;9.050;2024-03-23T13:46:21;14.10;95.20
13488;DHT22;6816;48.506;9.050;2024-03-23T13:49:28;14.00;94.70
13488;DHT22;6816;48.506;9.050;2024-03-23T13:52:32;13.90;93.20
13488;DHT22;6816;48.506;9.050;2024-03-23T13:55:37;13.80;94.20
13488;DHT22;6816;48.506;9.050;2024-03-23T13:58:38;13.60;93.90
13488;DHT22;6816;48.506;9.050;2024-03-23T14:01:39;13.50;93.60
13488;DHT22;6816;48.506;9.050;2024-03-23T14:04:40;13.30;93.40
13488;DHT22;6816;48.506;9.050;2024-03-23T14:07:41;13.10;93.20
13488;DHT22;6816;48.506;9.050;2024-03-23T14:10:42;13.00;93.10
13488;DHT22;6816;48.506;9.050;2024-03-23T14:13:43;12.80;93.40
13488;DHT22;6816;48.506;9.050;2024-03-23T14:16:44;12.70;93.60
13488;DHT22;6816;48.506;9.050;2024-03-23T14:19:45;12.50;93.40
13488;DHT22;6816;48.506;9.050;2024-03-23T14:22:46;12.40;93.60
13488;DHT22;6816;48.506;9.050;2024-03-23T14:25:49;12.30;94.00
13488;DHT22;6816;48.506;9.050;2024-03-23T14:28:50;12.30;94.00
13488;DHT22;6816;48.506;9.050;2024-03-23T14:31:54;12.20;93.90
13488;DHT22;6816;48.506;9.050;2024-03-23T14:34:56;12.20;94.00
13488;DHT22;6816;48.506;9.050;2024-03-23T14:37:57;12.10;94.00
13488;DHT22;6816;48.506;9.050;2024-03-23T14:41:00;12.10;94.40
13488;DHT22;6816;48.506;9.050;2024-03-23T14:44:03;12.10;94.10
13488;DHT22;6816;48.506;9.050;2024-03-23T14:47:03;12.00;94.70
13488;DHT22;6816;48.506;9.050;2024-03-23T14:50:04;12.00;94.60
13488;DHT22;6816;48.506;9.050;2024-03-23T14:53:06;12.00;94.60
13488;DHT22;6816;48.506;9.050;2024-03-23T14:56:10;11.90;94.50
13488;DHT22;6816;48.506;9.050;2024-03-23T14:59:13;11.80;93.60
13488;DHT22;6816;48.506;9.050;2024-03-23T15:02:14;11.60;92.60
13488;DHT22;6816;48.506;9.050;2024-03-23T15:05:15;11.30;92.40
13488;DHT22;6816;48.506;9.050;2024-03-23T15:08:22;10.90;92.80
13488;DHT22;6816;48.506;9.050;2024-03-23T15:11:26;10.60;93.20
13488;DHT22;6816;48.506;9.050;2024-03-23T15:14:27;10.40;93.90
13488;DHT22;6816;48.506;9.050;2024-03-23T15:17:27;10.30;94.50
13488;DHT22;6816;48.506;9.050;2024-03-23T15:20:28;10.20;94.80
13488;DHT22;6816;48.506;9.050;2024-03-23T15:23:29;10.10;95.10
13488;DHT22;6816;48.506;9.050;2024-03-23T15:26:30;10.00;95.20
13488;DHT22;6816;48.506;9.050;2024-03-23T15:29:30;9.90;95.40
13488;DHT22;6816;48.506;9.050;2024-03-23T15:32:31;9.90;95.60
13488;DHT22;6816;48.506;9.050;2024-03-23T15:35:31;9.80;95.60
13488;DHT22;6816;48.506;9.050;2024-03-23T15:38:32;9.80;95.90
13488;DHT22;6816;48.506;9.050;2024-03-23T15:41:33;9.80;96.20
13488;DHT22;6816;48.506;9.050;2024-03-23T15:44:36;9.70;96.50
13488;DHT22;6816;48.506;9.050;2024-03-23T15:47:36;9.80;96.90
13488;DHT22;6816;48.506;9.050;2024-03-23T15:50:37;9.80;97.00
13488;DHT22;6816;48.506;9.050;2024-03-23T15:53:37;9.80;97.00
13488;DHT22;6816;48.506;9.050;2024-03-23T15:56:38;9.80;97.10
13488;DHT22;6816;48.506;9.050;2024-03-23T15:59:40;9.80;97.10
13488;DHT22;6816;48.506;9.050;2024-03-23T16:02:41;9.90;96.90
13488;DHT22;6816;48.506;9.050;2024-03-23T16:05:42;9.90;97.10
13488;DHT22;6816;48.506;9.050;2024-03-23T16:08:42;9.90;97.10
13488;DHT22;6816;48.506;9.050;2024-03-23T16:11:44;9.90;97.10
13488;DHT22;6816;48.506;9.050;2024-03-23T16:14:44;9.90;97.10
13488;DHT22;6816;48.506;9.050;2024-03-23T16:17:45;9.90;97.20
13488;DHT22;6816;48.506;9.050;2024-03-23T16:24:31;10.00;95.60
13488;DHT22;6816;48.506;9.050;2024-03-23T16:27:32;10.00;97.10
13488;DHT22;6816;48.506;9.050;2024-03-23T16:30:33;10.00;97.10
13488;DHT22;6816;48.506;9.050;2024-03-23T16:33:34;9.90;97.10
13488;DHT22;6816;48.506;9.050;2024-03-23T16:36:35;9.90;97.30
13488;DHT22;6816;48.506;9.050;2024-03-23T16:39:36;10.00;97.30
13488;DHT22;6816;48.506;9.050;2024-03-23T16:42:37;10.00;97.10
13488;DHT22;6816;48.506;9.050;2024-03-23T16:45:37;10.00;96.70
13488;DHT22;6816;48.506;9.050;2024-03-23T16:48:38;10.10;96.30
13488;DHT22;6816;48.506;9.050;2024-03-23T16:51:42;9.90;95.90
13488;DHT22;6816;48.506;9.050;2024-03-23T16:54:43;9.80;95.90
13488;DHT22;6816;48.506;9.050;2024-03-23T16:57:43;9.80;95.90
13488;DHT22;6816;48.506;9.050;2024-03-23T17:00:44;9.70;95.80
13488;DHT22;6816;48.506;9.050;2024-03-23T17:03:48;9.60;95.60
13488;DHT22;6816;48.506;9.050;2024-03-23T17:06:50;9.50;95.10
13488;DHT22;6816;48.506;9.050;2024-03-23T17:09:51;9.40;95.50
13488;DHT22;6816;48.506;9.050;2024-03-23T17:12:53;9.40;95.50
13488;DHT22;6816;48.506;9.050;2024-03-23T17:15:54;9.30;95.40
13488;DHT22;6816;48.506;9.050;2024-03-23T17:18:55;9.20;95.40
13488;DHT22;6816;48.506;9.050;2024-03-23T17:21:56;9.20;95.50
13488;DHT22;6816;48.506;9.050;2024-03-23T17:24:56;9.10;95.40
13488;DHT22;6816;48.506;9.050;2024-03-23T17:27:57;9.00;95.40
13488;DHT22;6816;48.506;9.050;2024-03-23T17:30:57;8.90;95.60
13488;DHT22;6816;48.506;9.050;2024-03-23T17:33:58;9.00;95.70
13488;DHT22;6816;48.506;9.050;2024-03-23T17:36:59;8.80;95.90
13488;DHT22;6816;48.506;9.050;2024-03-23T17:39:59;8.90;96.10
13488;DHT22;6816;48.506;9.050;2024-03-23T17:43:00;8.70;96.20
13488;DHT22;6816;48.506;9.050;2024-03-23T17:46:00;8.70;96.40
13488;DHT22;6816;48.506;9.050;2024-03-23T17:49:01;8.70;96.60
13488;DHT22;6816;48.506;9.050;2024-03-23T17:52:09;8.90;96.80
13488;DHT22;6816;48.506;9.050;2024-03-23T17:55:11;8.70;96.20
13488;DHT22;6816;48.506;9.050;2024-03-23T17:58:12;8.80;96.80
13488;DHT22;6816;48.506;9.050;2024-03-23T18:01:12;8.70;96.80
13488;DHT22;6816;48.506;9.050;2024-03-23T18:04:13;8.70;96.70
13488;DHT22;6816;48.506;9.050;2024-03-23T18:07:14;8.70;96.50
13488;DHT22;6816;48.506;9.050;2024-03-23T18:10:14;8.70;96.50
13488;DHT22;6816;48.506;9.050;2024-03-23T18:13:15;8.60;96.40
13488;DHT22;6816;48.506;9.050;2024-03-23T18:16:15;8.50;96.30
13488;DHT22;6816;48.506;9.050;2024-03-23T18:19:16;8.50;96.30
13488;DHT22;6816;48.506;9.050;2024-03-23T18:22:17;8.40;96.30
13488;DHT22;6816;48.506;9.050;2024-03-23T18:25:17;8.30;96.30
13488;DHT22;6816;48.506;9.050;2024-03-23T18:28:18;8.30;96.30
13488;DHT22;6816;48.506;9.050;2024-03-23T18:31:19;8.30;96.40
13488;DHT22;6816;48.506;9.050;2024-03-23T18:34:20;8.20;96.40
13488;DHT22;6816;48.506;9.050;2024-03-23T18:37:21;8.20;96.50
13488;DHT22;6816;48.506;9.050;2024-03-23T18:40:22;8.10;96.60
13488;DHT22;6816;48.506;9.050;2024-03-23T18:43:23;8.00;96.60
13488;DHT22;6816;48.506;9.050;2024-03-23T18:46:24;8.10;96.60
13488;DHT22;6816;48.506;9.050;2024-03-23T18:49:25;8.00;96.60
13488;DHT22;6816;48.506;9.050;2024-03-23T18:52:25;8.00;96.70
13488;DHT22;6816;48.506;9.050;2024-03-23T18:55:26;7.90;96.70
13488;DHT22;6816;48.506;9.050;2024-03-23T18:58:27;7.90;96.70
13488;DHT22;6816;48.506;9.050;2024-03-23T19:01:27;8.00;96.80
13488;DHT22;6816;48.506;9.050;2024-03-23T19:04:28;8.20;96.90
13488;DHT22;6816;48.506;9.050;2024-03-23T19:07:28;7.90;96.80
13488;DHT22;6816;48.506;9.050;2024-03-23T19:10:29;7.90;96.80
13488;DHT22;6816;48.506;9.050;2024-03-23T19:13:30;7.80;96.80
13488;DHT22;6816;48.506;9.050;2024-03-23T19:16:39;7.80;96.80
13488;DHT22;6816;48.506;9.050;2024-03-23T19:19:40;7.80;96.80
13488;DHT22;6816;48.506;9.050;2024-03-23T19:22:40;7.80;96.90
13488;DHT22;6816;48.506;9.050;2024-03-23T19:25:41;7.70;96.80
13488;DHT22;6816;48.506;9.050;2024-03-23T19:28:42;7.60;96.80
13488;DHT22;6816;48.506;9.050;2024-03-23T19:31:42;7.70;96.90
13488;DHT22;6816;48.506;9.050;2024-03-23T19:34:43;7.50;96.80
13488;DHT22;6816;48.506;9.050;2024-03-23T19:37:43;7.40;96.70
13488;DHT22;6816;48.506;9.050;2024-03-23T19:40:55;7.40;96.60
13488;DHT22;6816;48.506;9.050;2024-03-23T19:43:55;7.40;96.10
13488;DHT22;6816;48.506;9.050;2024-03-23T19:46:57;7.30;96.60
13488;DHT22;6816;48.506;9.050;2024-03-23T19:49:57;7.30;96.70
13488;DHT22;6816;48.506;9.050;2024-03-23T19:52:58;7.30;96.70
13488;DHT22;6816;48.506;9.050;2024-03-23T19:55:59;7.20;96.70
13488;DHT22;6816;48.506;9.050;2024-03-23T19:59:01;7.30;96.70
13488;DHT22;6816;48.506;9.050;2024-03-23T20:02:02;7.20;96.80
13488;DHT22;6816;48.506;9.050;2024-03-23T20:05:03;7.20;96.70
13488;DHT22;6816;48.506;9.050;2024-03-23T20:08:04;7.10;96.60
13488;DHT22;6816;48.506;9.050;2024-03-23T20:11:06;7.10;96.60
13488;DHT22;6816;48.506;9.050;2024-03-23T20:14:07;7.10;96.70
13488;DHT22;6816;48.506;9.050;2024-03-23T20:17:08;7.00;96.70
13488;DHT22;6816;48.506;9.050;2024-03-23T20:20:09;7.30;96.90
13488;DHT22;6816;48.506;9.050;2024-03-23T20:23:10;7.00;96.90
13488;DHT22;6816;48.506;9.050;2024-03-23T20:26:14;6.90;96.90
13488;DHT22;6816;48.506;9.050;2024-03-23T20:29:15;6.90;97.00